Mineral Point, WI

10:54 AM CDT on July 06, 2015 (GMT -0500)
KWIMINER1 | | Change Station
CLOSE
Current Station
Personal Weather Station
Location: Mineral Point, WI
Elevation: 1066 ft
Nearby Weather Stations

Elev 1066 ft 42.85 °N, 90.18 °W | Updated 9 minutes ago

Rain
Rain
71.9 °F
Feels Like 71.9 °F
N
3.0
Wind Variable Wind from South
Gusts 4.0 mph

Today
High -- | Low -- °F
--% Chance of Precip.
Yesterday
High -- | Low -- °F
Precip. -- in
5:28 AM 8:41 PM
Waning Gibbous, 74% visible
Pressure 29.94 in
Visibility 7.0 miles
Clouds Overcast 1200 ft
Dew Point 71 °F
Humidity 95%
Rainfall 0.00 in
Snow Depth Not available.
UV 2 out of 12
Pollen 4.20 out of 12
Air Quality Not available.
Flu Activity Not available.
METAR KMRJ 061535Z AUTO 21008KT 7SM OVC012 23/21 A2994 RMK AO2

More Conditions Fewer Conditions

Pressure 29.94 in
Visibility 7.0 miles
Clouds Overcast 1200 ft
Dew Point 71 °F
Humidity 95%
Rainfall 0.00 in
Snow Depth Not available.
UV 2 out of 12
Pollen 4.20 out of 12
Air Quality Not available.
Flu Activity Not available.
METAR KMRJ 061535Z AUTO 21008KT 7SM OVC012 23/21 A2994 RMK AO2

More Conditions Fewer Conditions

10-Day Weather Forecast

×

Almanac

Astronomy

Jul. 06, 2015 Rise Set
Actual Time
Civil Twilight
Nautical Twilight
Astronomical Twilight
Moon
Length of Visible Light
Length of Day
Tomorrow will be .
, % of the Moon is Illuminated

Today's Extremes

State Highs State Lows

Community

WunderPhotos

Upload Photos

1,835,576 photos uploaded!

WunderBlogs® & News

Nearby

Air Quality

  Air Quality AQ Index Pollutant
Not available.

Snow Depth

Station Depth Elevation

Earthquake Activity

City Distance Mag. Time & Date
Minimum magnitude displayed is 2.5.

Coastal Water Temperatures

Place Temperature

Stations

Nearby Weather Stations

Station Location Temp. Windchill Dew Point Humidity Wind Precip. Elev Updated Type